Getzville, New York
Current Conditions -  °F | °C
As of 3:54 AM on Saturday 22 Nov 2014 (Local Time) from KBUF Reporting Station
Broken Clouds Broken Clouds  
Wind Chill:   Ceiling: 13000
Heat Index: 23°   Visibility: 10mi
Dew Point: 11°   Wind: 18mph
Humidity: 60%   Direction: 210°SSW
Pressure: 30.3"   Gusts: NA
Location:  43.02°N, 78.77°W
Report Text: KBUF 220854Z 21016KT 10SM BKN130 M05/M12 A3030 RMK AO2 SLP272 T10501117 58016
Loading
Personal Weather Stations






























Interactive Weather Map New forecast layout! Learn more

10-Day Weather Forecast

Advertisements
Track Severe Weather on mobile